sensor_id;sensor_type;location;lat;lon;timestamp;P1;durP1;ratioP1;P2;durP2;ratioP2
31087;SDS011;17745;55.914;37.554;2023-04-03T00:01:23;18.55;;;11.30;;
31087;SDS011;17745;55.914;37.554;2023-04-03T00:04:00;18.75;;;10.95;;
31087;SDS011;17745;55.914;37.554;2023-04-03T00:06:28;20.45;;;11.50;;
31087;SDS011;17745;55.914;37.554;2023-04-03T00:08:59;20.35;;;10.93;;
31087;SDS011;17745;55.914;37.554;2023-04-03T00:11:26;17.67;;;10.48;;
31087;SDS011;17745;55.914;37.554;2023-04-03T00:13:54;16.25;;;9.73;;
31087;SDS011;17745;55.914;37.554;2023-04-03T00:16:23;14.32;;;9.70;;
31087;SDS011;17745;55.914;37.554;2023-04-03T00:18:53;18.37;;;11.20;;
31087;SDS011;17745;55.914;37.554;2023-04-03T00:21:23;14.98;;;10.50;;
31087;SDS011;17745;55.914;37.554;2023-04-03T00:23:52;17.52;;;9.68;;
31087;SDS011;17745;55.914;37.554;2023-04-03T00:26:23;20.65;;;10.40;;
31087;SDS011;17745;55.914;37.554;2023-04-03T00:28:52;18.35;;;10.40;;
31087;SDS011;17745;55.914;37.554;2023-04-03T00:31:19;17.42;;;10.35;;
31087;SDS011;17745;55.914;37.554;2023-04-03T00:33:47;20.27;;;10.45;;
31087;SDS011;17745;55.914;37.554;2023-04-03T00:36:15;15.20;;;9.63;;
31087;SDS011;17745;55.914;37.554;2023-04-03T00:38:43;15.80;;;11.07;;
31087;SDS011;17745;55.914;37.554;2023-04-03T00:41:11;15.80;;;10.68;;
31087;SDS011;17745;55.914;37.554;2023-04-03T00:43:41;18.25;;;10.80;;
31087;SDS011;17745;55.914;37.554;2023-04-03T00:46:09;17.98;;;11.02;;
31087;SDS011;17745;55.914;37.554;2023-04-03T00:48:38;18.90;;;11.12;;
31087;SDS011;17745;55.914;37.554;2023-04-03T00:51:09;19.23;;;14.55;;
31087;SDS011;17745;55.914;37.554;2023-04-03T00:53:41;24.25;;;15.43;;
31087;SDS011;17745;55.914;37.554;2023-04-03T00:56:13;20.17;;;12.35;;
31087;SDS011;17745;55.914;37.554;2023-04-03T00:58:47;20.12;;;12.02;;
31087;SDS011;17745;55.914;37.554;2023-04-03T01:01:20;17.75;;;12.05;;
31087;SDS011;17745;55.914;37.554;2023-04-03T01:03:50;19.00;;;12.20;;
31087;SDS011;17745;55.914;37.554;2023-04-03T01:06:20;15.90;;;11.40;;
31087;SDS011;17745;55.914;37.554;2023-04-03T01:08:52;21.37;;;13.05;;
31087;SDS011;17745;55.914;37.554;2023-04-03T01:11:22;19.15;;;12.25;;
31087;SDS011;17745;55.914;37.554;2023-04-03T01:13:52;18.83;;;12.82;;
31087;SDS011;17745;55.914;37.554;2023-04-03T01:16:19;20.52;;;13.05;;
31087;SDS011;17745;55.914;37.554;2023-04-03T01:18:48;22.48;;;14.00;;
31087;SDS011;17745;55.914;37.554;2023-04-03T01:21:23;22.65;;;13.95;;
31087;SDS011;17745;55.914;37.554;2023-04-03T01:24:13;23.70;;;13.57;;
31087;SDS011;17745;55.914;37.554;2023-04-03T01:26:53;24.60;;;12.82;;
31087;SDS011;17745;55.914;37.554;2023-04-03T01:29:23;20.42;;;13.43;;
31087;SDS011;17745;55.914;37.554;2023-04-03T01:31:52;17.95;;;12.07;;
31087;SDS011;17745;55.914;37.554;2023-04-03T01:34:26;18.65;;;11.77;;
31087;SDS011;17745;55.914;37.554;2023-04-03T01:36:55;27.02;;;12.07;;
31087;SDS011;17745;55.914;37.554;2023-04-03T01:39:23;20.42;;;12.00;;
31087;SDS011;17745;55.914;37.554;2023-04-03T01:41:51;19.85;;;13.52;;
31087;SDS011;17745;55.914;37.554;2023-04-03T01:44:23;27.20;;;15.48;;
31087;SDS011;17745;55.914;37.554;2023-04-03T01:46:54;25.02;;;16.42;;
31087;SDS011;17745;55.914;37.554;2023-04-03T01:49:24;30.67;;;16.90;;
31087;SDS011;17745;55.914;37.554;2023-04-03T01:51:53;23.92;;;15.82;;
31087;SDS011;17745;55.914;37.554;2023-04-03T01:54:27;23.50;;;15.13;;
31087;SDS011;17745;55.914;37.554;2023-04-03T01:56:55;22.48;;;14.63;;
31087;SDS011;17745;55.914;37.554;2023-04-03T01:59:23;23.25;;;14.70;;
31087;SDS011;17745;55.914;37.554;2023-04-03T02:01:55;25.10;;;14.87;;
31087;SDS011;17745;55.914;37.554;2023-04-03T02:04:23;20.15;;;12.77;;
31087;SDS011;17745;55.914;37.554;2023-04-03T02:06:51;25.37;;;14.43;;
31087;SDS011;17745;55.914;37.554;2023-04-03T02:09:19;19.95;;;13.68;;
31087;SDS011;17745;55.914;37.554;2023-04-03T02:11:51;20.88;;;12.73;;
31087;SDS011;17745;55.914;37.554;2023-04-03T02:14:19;21.02;;;13.18;;
31087;SDS011;17745;55.914;37.554;2023-04-03T02:17:12;20.58;;;13.10;;
31087;SDS011;17745;55.914;37.554;2023-04-03T02:19:49;22.15;;;14.40;;
31087;SDS011;17745;55.914;37.554;2023-04-03T02:22:19;23.42;;;14.52;;
31087;SDS011;17745;55.914;37.554;2023-04-03T02:24:55;23.45;;;14.80;;
31087;SDS011;17745;55.914;37.554;2023-04-03T02:27:23;22.95;;;14.32;;
31087;SDS011;17745;55.914;37.554;2023-04-03T02:29:51;20.90;;;13.48;;
31087;SDS011;17745;55.914;37.554;2023-04-03T02:32:21;22.40;;;13.00;;
31087;SDS011;17745;55.914;37.554;2023-04-03T02:34:50;23.48;;;12.37;;
31087;SDS011;17745;55.914;37.554;2023-04-03T02:37:18;19.85;;;12.32;;
31087;SDS011;17745;55.914;37.554;2023-04-03T02:39:49;21.02;;;12.93;;
31087;SDS011;17745;55.914;37.554;2023-04-03T02:42:17;25.30;;;13.80;;
31087;SDS011;17745;55.914;37.554;2023-04-03T02:44:45;24.60;;;12.73;;
31087;SDS011;17745;55.914;37.554;2023-04-03T02:47:16;22.50;;;13.60;;
31087;SDS011;17745;55.914;37.554;2023-04-03T02:49:50;21.90;;;13.18;;
31087;SDS011;17745;55.914;37.554;2023-04-03T02:52:24;18.50;;;12.23;;
31087;SDS011;17745;55.914;37.554;2023-04-03T02:54:52;17.30;;;11.77;;
31087;SDS011;17745;55.914;37.554;2023-04-03T02:57:26;19.80;;;12.70;;
31087;SDS011;17745;55.914;37.554;2023-04-03T02:59:55;26.65;;;12.50;;
31087;SDS011;17745;55.914;37.554;2023-04-03T03:02:26;22.95;;;11.48;;
31087;SDS011;17745;55.914;37.554;2023-04-03T03:12:04;21.95;;;12.25;;
31087;SDS011;17745;55.914;37.554;2023-04-03T03:14:56;19.10;;;12.50;;
31087;SDS011;17745;55.914;37.554;2023-04-03T03:21:37;24.02;;;12.10;;
31087;SDS011;17745;55.914;37.554;2023-04-03T03:24:46;20.48;;;12.65;;
31087;SDS011;17745;55.914;37.554;2023-04-03T03:28:16;22.83;;;13.57;;
31087;SDS011;17745;55.914;37.554;2023-04-03T03:31:00;22.70;;;12.65;;
31087;SDS011;17745;55.914;37.554;2023-04-03T03:35:32;23.20;;;13.18;;
31087;SDS011;17745;55.914;37.554;2023-04-03T03:40:43;30.37;;;14.40;;
31087;SDS011;17745;55.914;37.554;2023-04-03T03:43:12;26.00;;;13.38;;
31087;SDS011;17745;55.914;37.554;2023-04-03T03:45:40;23.55;;;13.25;;
31087;SDS011;17745;55.914;37.554;2023-04-03T03:48:10;22.65;;;14.02;;
31087;SDS011;17745;55.914;37.554;2023-04-03T03:50:40;22.85;;;14.13;;
31087;SDS011;17745;55.914;37.554;2023-04-03T03:53:08;26.37;;;13.80;;
31087;SDS011;17745;55.914;37.554;2023-04-03T03:55:36;25.02;;;14.60;;
31087;SDS011;17745;55.914;37.554;2023-04-03T03:58:10;26.75;;;13.77;;
31087;SDS011;17745;55.914;37.554;2023-04-03T04:00:38;28.38;;;14.38;;
31087;SDS011;17745;55.914;37.554;2023-04-03T04:03:07;21.60;;;14.00;;
31087;SDS011;17745;55.914;37.554;2023-04-03T04:05:35;24.52;;;14.13;;
31087;SDS011;17745;55.914;37.554;2023-04-03T04:08:03;28.98;;;14.57;;
31087;SDS011;17745;55.914;37.554;2023-04-03T04:10:31;24.67;;;14.60;;
31087;SDS011;17745;55.914;37.554;2023-04-03T04:13:01;27.67;;;15.55;;
31087;SDS011;17745;55.914;37.554;2023-04-03T04:18:21;26.12;;;15.32;;
31087;SDS011;17745;55.914;37.554;2023-04-03T04:20:50;28.12;;;16.75;;
31087;SDS011;17745;55.914;37.554;2023-04-03T04:23:19;25.60;;;15.80;;
31087;SDS011;17745;55.914;37.554;2023-04-03T04:25:51;26.62;;;16.58;;
31087;SDS011;17745;55.914;37.554;2023-04-03T04:28:23;28.77;;;17.17;;
31087;SDS011;17745;55.914;37.554;2023-04-03T04:30:54;27.30;;;16.62;;
31087;SDS011;17745;55.914;37.554;2023-04-03T04:33:25;25.17;;;16.15;;
31087;SDS011;17745;55.914;37.554;2023-04-03T04:35:55;35.10;;;17.08;;
31087;SDS011;17745;55.914;37.554;2023-04-03T04:38:26;29.23;;;16.85;;
31087;SDS011;17745;55.914;37.554;2023-04-03T04:40:56;29.60;;;17.05;;
31087;SDS011;17745;55.914;37.554;2023-04-03T04:43:24;32.72;;;16.77;;
31087;SDS011;17745;55.914;37.554;2023-04-03T04:46:01;37.30;;;18.98;;
31087;SDS011;17745;55.914;37.554;2023-04-03T04:48:31;24.12;;;16.48;;
31087;SDS011;17745;55.914;37.554;2023-04-03T04:51:02;25.37;;;16.92;;
31087;SDS011;17745;55.914;37.554;2023-04-03T04:53:31;29.95;;;17.27;;
31087;SDS011;17745;55.914;37.554;2023-04-03T04:55:59;25.60;;;16.40;;
31087;SDS011;17745;55.914;37.554;2023-04-03T04:58:29;32.22;;;16.65;;
31087;SDS011;17745;55.914;37.554;2023-04-03T05:00:58;30.85;;;15.90;;
31087;SDS011;17745;55.914;37.554;2023-04-03T05:03:29;29.37;;;16.90;;
31087;SDS011;17745;55.914;37.554;2023-04-03T05:05:59;34.67;;;16.95;;
31087;SDS011;17745;55.914;37.554;2023-04-03T05:08:29;27.50;;;16.58;;
31087;SDS011;17745;55.914;37.554;2023-04-03T05:13:45;33.08;;;18.12;;
31087;SDS011;17745;55.914;37.554;2023-04-03T05:16:15;26.92;;;15.85;;
31087;SDS011;17745;55.914;37.554;2023-04-03T05:18:43;40.22;;;16.58;;
31087;SDS011;17745;55.914;37.554;2023-04-03T05:21:13;43.13;;;16.70;;
31087;SDS011;17745;55.914;37.554;2023-04-03T05:23:41;36.22;;;16.65;;
31087;SDS011;17745;55.914;37.554;2023-04-03T05:26:10;35.30;;;20.62;;
31087;SDS011;17745;55.914;37.554;2023-04-03T05:28:39;35.03;;;17.77;;
31087;SDS011;17745;55.914;37.554;2023-04-03T05:31:06;32.30;;;17.77;;
31087;SDS011;17745;55.914;37.554;2023-04-03T05:33:36;30.80;;;16.85;;
31087;SDS011;17745;55.914;37.554;2023-04-03T05:36:06;38.78;;;18.60;;
31087;SDS011;17745;55.914;37.554;2023-04-03T05:38:35;29.42;;;16.80;;
31087;SDS011;17745;55.914;37.554;2023-04-03T05:41:03;27.73;;;15.45;;
31087;SDS011;17745;55.914;37.554;2023-04-03T05:43:32;23.27;;;15.30;;
31087;SDS011;17745;55.914;37.554;2023-04-03T05:46:08;25.73;;;14.48;;
31087;SDS011;17745;55.914;37.554;2023-04-03T05:48:39;22.30;;;15.02;;
31087;SDS011;17745;55.914;37.554;2023-04-03T05:51:12;29.73;;;14.80;;
31087;SDS011;17745;55.914;37.554;2023-04-03T05:53:43;21.70;;;14.60;;
31087;SDS011;17745;55.914;37.554;2023-04-03T05:59:17;25.92;;;14.50;;
31087;SDS011;17745;55.914;37.554;2023-04-03T06:01:46;33.05;;;16.08;;
31087;SDS011;17745;55.914;37.554;2023-04-03T06:04:18;25.65;;;14.87;;
31087;SDS011;17745;55.914;37.554;2023-04-03T06:07:04;26.10;;;14.40;;
31087;SDS011;17745;55.914;37.554;2023-04-03T06:09:33;23.98;;;14.95;;
31087;SDS011;17745;55.914;37.554;2023-04-03T06:12:02;22.40;;;13.80;;
31087;SDS011;17745;55.914;37.554;2023-04-03T06:14:40;24.27;;;14.10;;
31087;SDS011;17745;55.914;37.554;2023-04-03T06:17:13;28.50;;;14.93;;
31087;SDS011;17745;55.914;37.554;2023-04-03T06:19:49;26.95;;;14.87;;
31087;SDS011;17745;55.914;37.554;2023-04-03T06:22:21;23.87;;;13.95;;
31087;SDS011;17745;55.914;37.554;2023-04-03T06:24:52;30.50;;;14.65;;
31087;SDS011;17745;55.914;37.554;2023-04-03T06:27:30;33.00;;;17.20;;
31087;SDS011;17745;55.914;37.554;2023-04-03T06:30:07;28.83;;;16.15;;
31087;SDS011;17745;55.914;37.554;2023-04-03T06:32:40;30.37;;;15.60;;
31087;SDS011;17745;55.914;37.554;2023-04-03T06:35:12;30.40;;;16.48;;
31087;SDS011;17745;55.914;37.554;2023-04-03T06:37:42;26.62;;;14.55;;
31087;SDS011;17745;55.914;37.554;2023-04-03T06:40:18;36.35;;;15.38;;
31087;SDS011;17745;55.914;37.554;2023-04-03T06:42:53;25.10;;;15.45;;
31087;SDS011;17745;55.914;37.554;2023-04-03T06:45:25;29.67;;;14.77;;
31087;SDS011;17745;55.914;37.554;2023-04-03T06:47:57;31.48;;;15.15;;
31087;SDS011;17745;55.914;37.554;2023-04-03T06:50:30;26.23;;;15.77;;
31087;SDS011;17745;55.914;37.554;2023-04-03T06:52:58;24.40;;;14.55;;
31087;SDS011;17745;55.914;37.554;2023-04-03T06:55:27;26.50;;;14.63;;
31087;SDS011;17745;55.914;37.554;2023-04-03T06:57:56;23.33;;;15.18;;
31087;SDS011;17745;55.914;37.554;2023-04-03T07:00:24;25.65;;;15.30;;
31087;SDS011;17745;55.914;37.554;2023-04-03T07:02:52;29.52;;;15.88;;
31087;SDS011;17745;55.914;37.554;2023-04-03T07:05:31;26.90;;;15.85;;
31087;SDS011;17745;55.914;37.554;2023-04-03T07:07:59;28.30;;;15.23;;
31087;SDS011;17745;55.914;37.554;2023-04-03T07:10:32;24.00;;;14.95;;
31087;SDS011;17745;55.914;37.554;2023-04-03T07:13:05;26.27;;;16.20;;
31087;SDS011;17745;55.914;37.554;2023-04-03T07:15:44;28.65;;;15.85;;
31087;SDS011;17745;55.914;37.554;2023-04-03T07:18:47;25.05;;;14.65;;
31087;SDS011;17745;55.914;37.554;2023-04-03T07:21:30;26.15;;;14.57;;
31087;SDS011;17745;55.914;37.554;2023-04-03T07:24:26;25.58;;;13.62;;
31087;SDS011;17745;55.914;37.554;2023-04-03T07:27:08;35.83;;;15.68;;
31087;SDS011;17745;55.914;37.554;2023-04-03T07:29:49;29.83;;;14.77;;
31087;SDS011;17745;55.914;37.554;2023-04-03T07:32:25;25.48;;;13.48;;
31087;SDS011;17745;55.914;37.554;2023-04-03T07:35:08;25.35;;;14.60;;
31087;SDS011;17745;55.914;37.554;2023-04-03T07:37:42;35.00;;;15.85;;
31087;SDS011;17745;55.914;37.554;2023-04-03T07:40:13;24.80;;;14.60;;
31087;SDS011;17745;55.914;37.554;2023-04-03T07:42:52;25.35;;;13.48;;
31087;SDS011;17745;55.914;37.554;2023-04-03T07:45:23;26.08;;;14.75;;
31087;SDS011;17745;55.914;37.554;2023-04-03T07:47:57;30.67;;;13.93;;
31087;SDS011;17745;55.914;37.554;2023-04-03T07:50:37;24.52;;;13.82;;
31087;SDS011;17745;55.914;37.554;2023-04-03T07:53:16;25.75;;;13.62;;
31087;SDS011;17745;55.914;37.554;2023-04-03T07:55:49;25.15;;;13.32;;
31087;SDS011;17745;55.914;37.554;2023-04-03T07:58:26;20.10;;;12.90;;
31087;SDS011;17745;55.914;37.554;2023-04-03T08:01:08;22.87;;;13.32;;
31087;SDS011;17745;55.914;37.554;2023-04-03T08:03:43;21.12;;;12.93;;
31087;SDS011;17745;55.914;37.554;2023-04-03T08:06:15;30.30;;;13.80;;
31087;SDS011;17745;55.914;37.554;2023-04-03T08:08:55;30.00;;;14.70;;
31087;SDS011;17745;55.914;37.554;2023-04-03T08:11:33;30.85;;;12.90;;
31087;SDS011;17745;55.914;37.554;2023-04-03T08:14:19;23.15;;;13.25;;
31087;SDS011;17745;55.914;37.554;2023-04-03T08:16:55;21.45;;;13.35;;
31087;SDS011;17745;55.914;37.554;2023-04-03T08:19:27;32.15;;;13.65;;
31087;SDS011;17745;55.914;37.554;2023-04-03T08:22:02;25.73;;;14.20;;
31087;SDS011;17745;55.914;37.554;2023-04-03T08:24:37;24.70;;;14.05;;
31087;SDS011;17745;55.914;37.554;2023-04-03T08:27:08;25.58;;;12.20;;
31087;SDS011;17745;55.914;37.554;2023-04-03T08:29:47;27.08;;;12.98;;
31087;SDS011;17745;55.914;37.554;2023-04-03T08:32:17;21.25;;;13.18;;
31087;SDS011;17745;55.914;37.554;2023-04-03T08:34:53;32.42;;;13.75;;
31087;SDS011;17745;55.914;37.554;2023-04-03T08:37:25;28.67;;;13.05;;
31087;SDS011;17745;55.914;37.554;2023-04-03T08:39:57;25.45;;;13.32;;
31087;SDS011;17745;55.914;37.554;2023-04-03T08:42:33;27.30;;;13.02;;
31087;SDS011;17745;55.914;37.554;2023-04-03T08:45:13;29.83;;;13.23;;
31087;SDS011;17745;55.914;37.554;2023-04-03T08:47:56;25.85;;;12.95;;
31087;SDS011;17745;55.914;37.554;2023-04-03T08:50:33;27.90;;;13.07;;
31087;SDS011;17745;55.914;37.554;2023-04-03T08:53:19;23.90;;;12.95;;
31087;SDS011;17745;55.914;37.554;2023-04-03T08:55:51;24.10;;;12.43;;
31087;SDS011;17745;55.914;37.554;2023-04-03T08:58:22;30.88;;;12.57;;
31087;SDS011;17745;55.914;37.554;2023-04-03T09:00:55;25.30;;;12.37;;
31087;SDS011;17745;55.914;37.554;2023-04-03T09:03:28;21.37;;;12.02;;
31087;SDS011;17745;55.914;37.554;2023-04-03T09:06:05;24.05;;;12.32;;
31087;SDS011;17745;55.914;37.554;2023-04-03T09:08:43;25.62;;;12.50;;
31087;SDS011;17745;55.914;37.554;2023-04-03T09:11:20;24.00;;;13.38;;
31087;SDS011;17745;55.914;37.554;2023-04-03T09:13:53;30.35;;;12.25;;
31087;SDS011;17745;55.914;37.554;2023-04-03T09:16:33;22.50;;;12.52;;
31087;SDS011;17745;55.914;37.554;2023-04-03T09:19:09;23.60;;;13.62;;
31087;SDS011;17745;55.914;37.554;2023-04-03T09:21:56;26.70;;;13.70;;
31087;SDS011;17745;55.914;37.554;2023-04-03T09:24:24;27.98;;;13.55;;
31087;SDS011;17745;55.914;37.554;2023-04-03T09:26:56;39.40;;;12.73;;
31087;SDS011;17745;55.914;37.554;2023-04-03T09:29:28;32.75;;;12.73;;
31087;SDS011;17745;55.914;37.554;2023-04-03T09:32:02;26.52;;;13.55;;
31087;SDS011;17745;55.914;37.554;2023-04-03T09:34:52;34.75;;;13.80;;
31087;SDS011;17745;55.914;37.554;2023-04-03T09:37:35;28.08;;;13.73;;
31087;SDS011;17745;55.914;37.554;2023-04-03T09:40:11;26.45;;;11.88;;
31087;SDS011;17745;55.914;37.554;2023-04-03T09:43:22;32.58;;;12.60;;
31087;SDS011;17745;55.914;37.554;2023-04-03T09:45:55;24.80;;;12.77;;
31087;SDS011;17745;55.914;37.554;2023-04-03T09:48:49;32.90;;;12.93;;
31087;SDS011;17745;55.914;37.554;2023-04-03T09:51:18;22.75;;;12.55;;
31087;SDS011;17745;55.914;37.554;2023-04-03T09:53:46;28.35;;;11.98;;
31087;SDS011;17745;55.914;37.554;2023-04-03T09:56:21;25.17;;;13.10;;
31087;SDS011;17745;55.914;37.554;2023-04-03T09:59:06;21.40;;;12.18;;
31087;SDS011;17745;55.914;37.554;2023-04-03T10:01:43;25.67;;;13.07;;
31087;SDS011;17745;55.914;37.554;2023-04-03T10:04:24;22.90;;;10.77;;
31087;SDS011;17745;55.914;37.554;2023-04-03T10:06:53;26.10;;;11.50;;
31087;SDS011;17745;55.914;37.554;2023-04-03T10:09:23;22.35;;;11.65;;
31087;SDS011;17745;55.914;37.554;2023-04-03T10:12:03;19.35;;;11.63;;
31087;SDS011;17745;55.914;37.554;2023-04-03T10:14:35;25.88;;;12.20;;
31087;SDS011;17745;55.914;37.554;2023-04-03T10:17:14;16.65;;;11.02;;
31087;SDS011;17745;55.914;37.554;2023-04-03T10:19:47;15.73;;;10.10;;
31087;SDS011;17745;55.914;37.554;2023-04-03T10:22:20;15.20;;;10.27;;
31087;SDS011;17745;55.914;37.554;2023-04-03T10:25:00;25.15;;;11.77;;
31087;SDS011;17745;55.914;37.554;2023-04-03T10:27:37;21.25;;;10.85;;
31087;SDS011;17745;55.914;37.554;2023-04-03T10:30:19;17.85;;;10.80;;
31087;SDS011;17745;55.914;37.554;2023-04-03T10:32:58;25.85;;;12.02;;
31087;SDS011;17745;55.914;37.554;2023-04-03T10:36:02;23.38;;;12.27;;
31087;SDS011;17745;55.914;37.554;2023-04-03T10:38:48;23.55;;;12.93;;
31087;SDS011;17745;55.914;37.554;2023-04-03T10:41:25;31.30;;;12.73;;
31087;SDS011;17745;55.914;37.554;2023-04-03T10:44:06;30.27;;;12.55;;
31087;SDS011;17745;55.914;37.554;2023-04-03T10:46:48;21.00;;;10.57;;
31087;SDS011;17745;55.914;37.554;2023-04-03T10:49:29;17.87;;;10.10;;
31087;SDS011;17745;55.914;37.554;2023-04-03T10:52:06;17.15;;;9.35;;
31087;SDS011;17745;55.914;37.554;2023-04-03T10:54:45;22.60;;;9.57;;
31087;SDS011;17745;55.914;37.554;2023-04-03T10:57:22;26.52;;;9.40;;
31087;SDS011;17745;55.914;37.554;2023-04-03T10:59:53;20.95;;;8.73;;
31087;SDS011;17745;55.914;37.554;2023-04-03T11:02:31;20.37;;;7.65;;
31087;SDS011;17745;55.914;37.554;2023-04-03T11:05:05;12.02;;;6.62;;
31087;SDS011;17745;55.914;37.554;2023-04-03T11:07:45;12.43;;;6.75;;
31087;SDS011;17745;55.914;37.554;2023-04-03T11:10:21;19.73;;;9.10;;
31087;SDS011;17745;55.914;37.554;2023-04-03T11:13:06;21.95;;;10.52;;
31087;SDS011;17745;55.914;37.554;2023-04-03T11:15:39;28.52;;;10.13;;
31087;SDS011;17745;55.914;37.554;2023-04-03T11:18:13;24.00;;;10.40;;
31087;SDS011;17745;55.914;37.554;2023-04-03T11:20:46;21.58;;;10.43;;
31087;SDS011;17745;55.914;37.554;2023-04-03T11:23:21;19.50;;;9.13;;
31087;SDS011;17745;55.914;37.554;2023-04-03T11:25:55;20.55;;;9.25;;
31087;SDS011;17745;55.914;37.554;2023-04-03T11:28:26;22.52;;;9.18;;
31087;SDS011;17745;55.914;37.554;2023-04-03T11:30:59;19.02;;;8.32;;
31087;SDS011;17745;55.914;37.554;2023-04-03T11:33:44;13.20;;;7.43;;
31087;SDS011;17745;55.914;37.554;2023-04-03T11:36:22;20.98;;;9.05;;
31087;SDS011;17745;55.914;37.554;2023-04-03T11:38:53;20.52;;;9.27;;
31087;SDS011;17745;55.914;37.554;2023-04-03T11:41:28;20.15;;;9.68;;
31087;SDS011;17745;55.914;37.554;2023-04-03T11:44:03;22.67;;;9.60;;
31087;SDS011;17745;55.914;37.554;2023-04-03T11:46:56;19.48;;;9.40;;
31087;SDS011;17745;55.914;37.554;2023-04-03T11:58:26;24.20;;;9.77;;
31087;SDS011;17745;55.914;37.554;2023-04-03T12:04:07;18.30;;;8.38;;
31087;SDS011;17745;55.914;37.554;2023-04-03T12:09:22;20.35;;;8.57;;
31087;SDS011;17745;55.914;37.554;2023-04-03T12:11:53;15.27;;;8.23;;
31087;SDS011;17745;55.914;37.554;2023-04-03T12:14:23;13.80;;;8.30;;
31087;SDS011;17745;55.914;37.554;2023-04-03T12:16:54;19.30;;;8.93;;
31087;SDS011;17745;55.914;37.554;2023-04-03T12:19:37;16.40;;;8.60;;
31087;SDS011;17745;55.914;37.554;2023-04-03T12:22:10;21.50;;;8.80;;
31087;SDS011;17745;55.914;37.554;2023-04-03T12:24:46;18.75;;;10.40;;
31087;SDS011;17745;55.914;37.554;2023-04-03T12:27:17;26.40;;;9.60;;
31087;SDS011;17745;55.914;37.554;2023-04-03T12:29:55;18.62;;;10.07;;
31087;SDS011;17745;55.914;37.554;2023-04-03T12:32:36;22.92;;;9.68;;
31087;SDS011;17745;55.914;37.554;2023-04-03T12:35:18;25.02;;;8.82;;
31087;SDS011;17745;55.914;37.554;2023-04-03T12:37:57;20.33;;;7.35;;
31087;SDS011;17745;55.914;37.554;2023-04-03T12:40:48;32.15;;;9.60;;
31087;SDS011;17745;55.914;37.554;2023-04-03T12:43:33;20.70;;;8.85;;
31087;SDS011;17745;55.914;37.554;2023-04-03T12:46:26;20.25;;;8.77;;
31087;SDS011;17745;55.914;37.554;2023-04-03T12:49:12;17.02;;;8.43;;
31087;SDS011;17745;55.914;37.554;2023-04-03T12:51:58;18.05;;;9.52;;
31087;SDS011;17745;55.914;37.554;2023-04-03T12:54:35;20.15;;;9.68;;
31087;SDS011;17745;55.914;37.554;2023-04-03T12:57:16;24.12;;;9.40;;
31087;SDS011;17745;55.914;37.554;2023-04-03T12:59:49;16.62;;;9.15;;
31087;SDS011;17745;55.914;37.554;2023-04-03T13:02:32;17.30;;;8.88;;
31087;SDS011;17745;55.914;37.554;2023-04-03T13:05:16;25.45;;;9.23;;
31087;SDS011;17745;55.914;37.554;2023-04-03T13:07:52;18.77;;;8.38;;
31087;SDS011;17745;55.914;37.554;2023-04-03T13:10:42;19.92;;;8.43;;
31087;SDS011;17745;55.914;37.554;2023-04-03T13:13:18;19.65;;;9.48;;
31087;SDS011;17745;55.914;37.554;2023-04-03T13:15:47;27.17;;;8.98;;
31087;SDS011;17745;55.914;37.554;2023-04-03T13:18:23;27.33;;;9.13;;
31087;SDS011;17745;55.914;37.554;2023-04-03T13:20:56;23.08;;;8.85;;
31087;SDS011;17745;55.914;37.554;2023-04-03T13:23:34;19.35;;;9.23;;
31087;SDS011;17745;55.914;37.554;2023-04-03T13:26:06;26.42;;;8.60;;
31087;SDS011;17745;55.914;37.554;2023-04-03T13:28:37;18.35;;;8.40;;
31087;SDS011;17745;55.914;37.554;2023-04-03T13:31:08;27.77;;;10.05;;
31087;SDS011;17745;55.914;37.554;2023-04-03T13:33:59;23.08;;;8.75;;
31087;SDS011;17745;55.914;37.554;2023-04-03T13:36:34;22.25;;;9.60;;
31087;SDS011;17745;55.914;37.554;2023-04-03T13:39:22;22.95;;;9.35;;
31087;SDS011;17745;55.914;37.554;2023-04-03T13:41:53;17.37;;;8.55;;
31087;SDS011;17745;55.914;37.554;2023-04-03T13:44:27;15.80;;;8.30;;
31087;SDS011;17745;55.914;37.554;2023-04-03T13:47:17;19.87;;;7.85;;
31087;SDS011;17745;55.914;37.554;2023-04-03T13:49:58;17.87;;;9.32;;
31087;SDS011;17745;55.914;37.554;2023-04-03T13:52:30;15.90;;;8.82;;
31087;SDS011;17745;55.914;37.554;2023-04-03T13:55:11;16.85;;;8.95;;
31087;SDS011;17745;55.914;37.554;2023-04-03T13:57:49;17.15;;;10.13;;
31087;SDS011;17745;55.914;37.554;2023-04-03T14:00:21;23.38;;;9.68;;
31087;SDS011;17745;55.914;37.554;2023-04-03T14:02:57;28.70;;;10.30;;
31087;SDS011;17745;55.914;37.554;2023-04-03T14:05:26;21.00;;;11.18;;
31087;SDS011;17745;55.914;37.554;2023-04-03T14:07:54;18.83;;;9.82;;
31087;SDS011;17745;55.914;37.554;2023-04-03T14:10:24;22.15;;;9.57;;
31087;SDS011;17745;55.914;37.554;2023-04-03T14:13:04;21.77;;;9.50;;
31087;SDS011;17745;55.914;37.554;2023-04-03T14:19:17;24.65;;;10.68;;
31087;SDS011;17745;55.914;37.554;2023-04-03T14:25:22;23.77;;;10.93;;
31087;SDS011;17745;55.914;37.554;2023-04-03T14:35:04;22.37;;;9.40;;
31087;SDS011;17745;55.914;37.554;2023-04-03T14:37:33;17.90;;;10.27;;
31087;SDS011;17745;55.914;37.554;2023-04-03T14:40:03;18.40;;;10.13;;
31087;SDS011;17745;55.914;37.554;2023-04-03T14:42:36;16.23;;;8.82;;
31087;SDS011;17745;55.914;37.554;2023-04-03T14:45:10;17.10;;;10.63;;
31087;SDS011;17745;55.914;37.554;2023-04-03T14:47:41;19.08;;;11.32;;
31087;SDS011;17745;55.914;37.554;2023-04-03T14:50:19;19.55;;;11.50;;
31087;SDS011;17745;55.914;37.554;2023-04-03T14:52:58;20.62;;;11.20;;
31087;SDS011;17745;55.914;37.554;2023-04-03T14:55:26;24.55;;;12.55;;
31087;SDS011;17745;55.914;37.554;2023-04-03T14:57:55;16.92;;;11.75;;
31087;SDS011;17745;55.914;37.554;2023-04-03T15:00:26;19.42;;;11.52;;
31087;SDS011;17745;55.914;37.554;2023-04-03T15:03:05;21.25;;;11.60;;
31087;SDS011;17745;55.914;37.554;2023-04-03T15:05:38;19.73;;;11.85;;
31087;SDS011;17745;55.914;37.554;2023-04-03T15:08:16;20.30;;;11.27;;
31087;SDS011;17745;55.914;37.554;2023-04-03T15:10:47;21.42;;;12.05;;
31087;SDS011;17745;55.914;37.554;2023-04-03T15:13:16;20.52;;;11.50;;
31087;SDS011;17745;55.914;37.554;2023-04-03T15:15:44;19.45;;;11.25;;
31087;SDS011;17745;55.914;37.554;2023-04-03T15:18:19;22.50;;;12.45;;
31087;SDS011;17745;55.914;37.554;2023-04-03T15:20:50;18.37;;;12.13;;
31087;SDS011;17745;55.914;37.554;2023-04-03T15:23:18;20.30;;;13.05;;
31087;SDS011;17745;55.914;37.554;2023-04-03T15:25:46;20.37;;;13.38;;
31087;SDS011;17745;55.914;37.554;2023-04-03T15:28:17;22.25;;;14.00;;
31087;SDS011;17745;55.914;37.554;2023-04-03T15:30:58;20.85;;;13.13;;
31087;SDS011;17745;55.914;37.554;2023-04-03T15:33:27;23.05;;;13.82;;
31087;SDS011;17745;55.914;37.554;2023-04-03T15:35:57;18.00;;;12.57;;
31087;SDS011;17745;55.914;37.554;2023-04-03T15:38:32;24.55;;;13.50;;
31087;SDS011;17745;55.914;37.554;2023-04-03T15:41:03;22.05;;;12.95;;
31087;SDS011;17745;55.914;37.554;2023-04-03T15:43:33;22.37;;;13.75;;
31087;SDS011;17745;55.914;37.554;2023-04-03T15:46:02;35.38;;;14.52;;